createdAt,value
2018-06-29T00:00:15.111Z,51.14
2018-06-29T00:00:36.867Z,51.06
2018-06-29T00:00:58.734Z,50.51
2018-06-29T00:01:20.388Z,50.95
2018-06-29T00:01:42.242Z,51.40
2018-06-29T00:02:03.986Z,50.89
2018-06-29T00:02:25.741Z,50.83
2018-06-29T00:02:47.502Z,50.77
2018-06-29T00:03:09.254Z,50.56
2018-06-29T00:03:31.003Z,50.52
2018-06-29T00:03:52.780Z,50.66
2018-06-29T00:04:14.540Z,50.43
2018-06-29T00:04:36.306Z,50.56
2018-06-29T00:04:58.064Z,51.11
2018-06-29T00:05:19.830Z,50.59
2018-06-29T00:05:41.584Z,50.87
2018-06-29T00:06:03.338Z,50.36
2018-06-29T00:06:25.090Z,50.51
2018-06-29T00:06:46.853Z,51.15
2018-06-29T00:07:08.660Z,51.14
2018-06-29T00:07:30.452Z,50.51
2018-06-29T00:07:52.251Z,50.25
2018-06-29T00:08:14.021Z,50.69
2018-06-29T00:08:35.775Z,50.72
2018-06-29T00:08:57.548Z,50.94
2018-06-29T00:09:19.299Z,50.20
2018-06-29T00:09:41.091Z,50.93
2018-06-29T00:10:02.835Z,50.39
2018-06-29T00:10:25.675Z,49.92
2018-06-29T00:10:47.452Z,50.70
2018-06-29T00:11:09.213Z,50.50
2018-06-29T00:11:30.976Z,50.98
2018-06-29T00:11:52.823Z,50.76
2018-06-29T00:12:14.588Z,50.34
2018-06-29T00:12:36.347Z,50.09
2018-06-29T00:12:58.104Z,50.93
2018-06-29T00:13:19.867Z,50.40
2018-06-29T00:13:41.628Z,50.77
2018-06-29T00:14:03.370Z,50.69
2018-06-29T00:14:25.138Z,50.41
2018-06-29T00:14:47.318Z,50.42
2018-06-29T00:15:09.106Z,50.87
2018-06-29T00:15:30.847Z,50.60
2018-06-29T00:15:52.596Z,50.58
2018-06-29T00:16:14.343Z,50.61
2018-06-29T00:16:36.189Z,50.71
2018-06-29T00:16:57.899Z,50.91
2018-06-29T00:17:19.741Z,50.84
2018-06-29T00:17:41.487Z,50.25
2018-06-29T00:18:03.246Z,50.00
2018-06-29T00:18:25.094Z,50.94
2018-06-29T00:18:46.847Z,50.96
2018-06-29T00:19:08.591Z,50.34
2018-06-29T00:19:30.338Z,50.59
2018-06-29T00:19:52.114Z,50.68
2018-06-29T00:20:13.868Z,50.84
2018-06-29T00:20:35.618Z,50.12
2018-06-29T00:20:57.359Z,50.76
2018-06-29T00:21:19.108Z,50.58
2018-06-29T00:21:40.890Z,50.40
2018-06-29T00:22:02.641Z,50.71
2018-06-29T00:22:24.558Z,50.90
2018-06-29T00:22:46.544Z,50.29
2018-06-29T00:23:08.294Z,50.09
2018-06-29T00:23:30.044Z,50.68
2018-06-29T00:23:51.823Z,50.37
2018-06-29T00:24:13.570Z,50.12
2018-06-29T00:24:35.323Z,50.61
2018-06-29T00:24:57.083Z,50.10
2018-06-29T00:25:18.834Z,51.00
2018-06-29T00:25:40.583Z,50.76
2018-06-29T00:26:02.444Z,50.21
2018-06-29T00:26:24.195Z,50.32
2018-06-29T00:26:46.046Z,51.08
2018-06-29T00:27:07.729Z,50.85
2018-06-29T00:27:29.495Z,51.08
2018-06-29T00:27:51.263Z,50.33
2018-06-29T00:28:13.032Z,51.10
2018-06-29T00:28:34.784Z,51.10
2018-06-29T00:28:56.552Z,50.63
2018-06-29T00:29:18.309Z,51.11
2018-06-29T00:29:40.072Z,50.52
2018-06-29T00:30:01.926Z,50.37
2018-06-29T00:30:23.692Z,50.25
2018-06-29T00:30:45.452Z,51.12
2018-06-29T00:31:07.204Z,50.89
2018-06-29T00:31:28.951Z,50.32
2018-06-29T00:31:51.091Z,50.24
2018-06-29T00:32:12.849Z,50.63
2018-06-29T00:32:34.604Z,50.75
2018-06-29T00:32:56.368Z,51.16
2018-06-29T00:33:18.160Z,50.65
2018-06-29T00:33:39.898Z,50.38
2018-06-29T01:53:53.164Z,52.81
2018-06-29T01:54:14.908Z,52.40
2018-06-29T01:54:36.666Z,52.99
2018-06-29T01:54:58.427Z,52.93
2018-06-29T01:55:20.207Z,53.33
2018-06-29T01:55:41.960Z,53.25
2018-06-29T01:56:03.730Z,53.21
2018-06-29T01:56:25.478Z,52.97
2018-06-29T01:56:47.229Z,53.08
2018-06-29T01:57:08.989Z,53.09
2018-06-29T01:57:30.767Z,52.82
2018-06-29T01:57:52.519Z,53.25
2018-06-29T01:58:14.296Z,53.02
2018-06-29T01:58:36.103Z,52.77
2018-06-29T01:58:57.864Z,53.61
2018-06-29T01:59:19.715Z,53.63
2018-06-29T01:59:41.513Z,53.02
2018-06-29T02:00:03.257Z,53.33
2018-06-29T02:00:25.040Z,53.10
2018-06-29T02:00:46.794Z,53.10
2018-06-29T02:01:08.551Z,53.13
2018-06-29T02:01:30.332Z,53.02
2018-06-29T02:01:52.100Z,53.75
2018-06-29T02:02:13.857Z,53.24
2018-06-29T02:02:35.607Z,52.93
2018-06-29T02:02:57.356Z,52.89
2018-06-29T02:03:19.151Z,53.21
2018-06-29T02:03:40.899Z,53.21
2018-06-29T02:04:02.668Z,53.10
2018-06-29T02:04:24.415Z,53.73
2018-06-29T02:04:46.172Z,53.55
2018-06-29T02:05:07.922Z,54.05
2018-06-29T02:05:29.699Z,53.83
2018-06-29T02:05:51.455Z,53.89
2018-06-29T02:06:13.219Z,53.78
2018-06-29T02:06:34.999Z,53.84
2018-06-29T02:06:56.742Z,53.58
2018-06-29T02:07:18.499Z,53.85
2018-06-29T02:07:40.256Z,53.86
2018-06-29T02:08:02.017Z,53.50
2018-06-29T02:08:23.952Z,53.42
2018-06-29T02:08:45.715Z,53.28
2018-06-29T02:09:07.454Z,53.67
2018-06-29T02:09:29.211Z,54.16
2018-06-29T02:09:50.964Z,54.14
2018-06-29T02:10:12.726Z,53.79
2018-06-29T02:10:34.490Z,53.58
2018-06-29T02:10:56.239Z,53.98
2018-06-29T02:11:17.978Z,53.85
2018-06-29T02:11:39.928Z,53.45
2018-06-29T02:12:01.669Z,53.69
2018-06-29T02:12:23.421Z,53.65
2018-06-29T02:12:45.176Z,54.02
2018-06-29T02:13:06.910Z,54.11
2018-06-29T02:13:28.883Z,53.99
2018-06-29T02:13:50.654Z,54.46
2018-06-29T02:14:12.408Z,54.09
2018-06-29T02:14:34.155Z,54.25
2018-06-29T02:14:55.907Z,54.19
2018-06-29T02:15:17.650Z,53.67
2018-06-29T02:15:39.415Z,54.37
2018-06-29T02:16:01.153Z,54.54
2018-06-29T02:16:22.902Z,54.45
2018-06-29T02:16:44.647Z,54.00
2018-06-29T02:17:06.404Z,54.07
2018-06-29T02:17:28.154Z,53.51
2018-06-29T02:17:49.899Z,54.52
2018-06-29T02:18:11.637Z,54.29
2018-06-29T02:18:33.392Z,54.22
2018-06-29T02:18:55.142Z,54.09
2018-06-29T02:19:16.888Z,54.09
2018-06-29T02:19:38.632Z,53.79
2018-06-29T02:20:00.371Z,54.53
2018-06-29T02:20:22.123Z,54.40
2018-06-29T02:20:43.900Z,54.34
2018-06-29T02:21:05.649Z,54.32
2018-06-29T02:21:27.387Z,54.48
2018-06-29T02:21:49.150Z,54.46
2018-06-29T02:22:10.908Z,54.26
2018-06-29T02:22:32.654Z,54.72
2018-06-29T02:22:54.407Z,54.55
2018-06-29T02:23:16.159Z,54.58
2018-06-29T02:23:37.893Z,54.42
2018-06-29T02:23:59.646Z,54.43
2018-06-29T02:24:21.392Z,54.54
2018-06-29T02:24:43.151Z,54.84
2018-06-29T02:25:04.907Z,54.79
2018-06-29T02:25:26.655Z,54.47
2018-06-29T02:25:48.430Z,54.46
2018-06-29T02:26:10.196Z,54.66
2018-06-29T02:26:31.955Z,54.23
2018-06-29T02:26:53.723Z,54.70
2018-06-29T02:27:15.494Z,54.65
2018-06-29T02:27:37.519Z,54.18
2018-06-29T02:27:59.253Z,54.88
2018-06-29T02:28:21.003Z,54.34
2018-06-29T02:28:42.760Z,54.66
2018-06-29T02:29:04.502Z,54.75
2018-06-29T02:29:26.260Z,54.63
2018-06-29T02:29:48.020Z,54.80
2018-06-29T02:30:09.771Z,54.13
2018-06-29T02:30:31.568Z,54.54
2018-06-29T02:30:54.372Z,54.28
2018-06-29T02:31:16.079Z,54.65
2018-06-29T02:31:37.835Z,54.43
2018-06-29T02:31:59.589Z,54.31
2018-06-29T02:32:21.356Z,54.61
2018-06-29T02:32:43.112Z,54.62
2018-06-29T02:33:04.879Z,54.47
2018-06-29T02:33:26.688Z,54.40
2018-06-29T02:33:48.448Z,54.79
2018-06-29T02:34:10.201Z,54.13
2018-06-29T02:34:31.969Z,54.91
2018-06-29T02:34:53.726Z,54.95
2018-06-29T02:35:15.476Z,54.67
2018-06-29T02:35:37.260Z,54.39
2018-06-29T02:35:59.011Z,54.98
2018-06-29T02:36:20.766Z,54.97
2018-06-29T02:36:42.511Z,54.35
2018-06-29T02:37:04.251Z,54.46
2018-06-29T02:37:26.009Z,54.70
2018-06-29T02:37:47.764Z,54.89
2018-06-29T02:38:09.522Z,54.50
2018-06-29T02:38:31.265Z,54.92
2018-06-29T02:38:53.020Z,55.08
2018-06-29T02:39:14.775Z,54.39
2018-06-29T02:39:36.527Z,54.36
2018-06-29T02:39:58.296Z,55.04
2018-06-29T02:40:20.040Z,55.08
2018-06-29T02:40:41.803Z,54.45
2018-06-29T02:41:03.552Z,54.94
2018-06-29T02:41:25.392Z,54.37
2018-06-29T02:41:47.137Z,54.03
2018-06-29T02:42:08.904Z,54.26
2018-06-29T02:42:30.651Z,54.57
2018-06-29T02:42:52.403Z,54.73
2018-06-29T02:43:14.151Z,54.65
2018-06-29T02:43:35.912Z,54.41
2018-06-29T02:43:57.702Z,54.70
2018-06-29T02:44:19.463Z,54.80
2018-06-29T02:44:41.206Z,54.97
2018-06-29T02:45:02.967Z,55.30
2018-06-29T02:45:24.718Z,55.10
2018-06-29T02:45:46.470Z,55.12
2018-06-29T02:46:08.210Z,55.11
2018-06-29T02:46:29.954Z,54.50
2018-06-29T02:46:51.714Z,54.88
2018-06-29T02:47:13.480Z,55.50
2018-06-29T02:47:35.226Z,54.80
2018-06-29T02:47:56.990Z,55.79
2018-06-29T02:48:18.736Z,55.15
2018-06-29T02:48:40.499Z,55.71
2018-06-29T02:49:02.252Z,55.90
2018-06-29T02:49:24.003Z,55.09
2018-06-29T02:49:45.743Z,55.33
2018-06-29T02:50:07.586Z,55.52
2018-06-29T02:50:29.353Z,55.39
2018-06-29T02:50:51.124Z,55.56
2018-06-29T02:51:12.874Z,54.98
2018-06-29T02:51:34.953Z,55.12
2018-06-29T02:51:56.702Z,55.47
2018-06-29T02:52:18.440Z,55.19
2018-06-29T02:52:40.179Z,54.89
2018-06-29T02:53:01.942Z,55.34
2018-06-29T02:53:23.694Z,55.10
2018-06-29T02:53:45.452Z,55.53
2018-06-29T02:54:07.199Z,55.80
2018-06-29T02:54:28.950Z,55.58
2018-06-29T02:54:51.282Z,55.87
2018-06-29T02:55:13.043Z,55.39
2018-06-29T02:55:34.801Z,55.37
2018-06-29T02:55:56.581Z,55.85
2018-06-29T02:56:18.339Z,55.49
2018-06-29T02:56:40.104Z,55.12
2018-06-29T02:57:01.865Z,55.07
2018-06-29T02:57:23.606Z,55.40
2018-06-29T02:57:45.376Z,55.61
2018-06-29T02:58:07.137Z,55.51
2018-06-29T02:58:28.886Z,55.27
2018-06-29T02:58:50.622Z,55.29
2018-06-29T02:59:12.364Z,55.93
2018-06-29T02:59:34.140Z,55.43
2018-06-29T02:59:55.910Z,55.09
2018-06-29T03:00:17.657Z,55.36
2018-06-29T03:00:39.425Z,55.15
2018-06-29T03:01:01.204Z,55.59
2018-06-29T03:01:22.975Z,55.46
2018-06-29T03:01:44.727Z,55.70
2018-06-29T03:02:06.488Z,55.40
2018-06-29T03:02:28.243Z,55.57
2018-06-29T03:02:49.996Z,55.51
2018-06-29T03:03:11.734Z,55.33
2018-06-29T03:03:33.576Z,56.20
2018-06-29T03:03:55.330Z,56.17
2018-06-29T03:04:17.084Z,56.07
2018-06-29T03:04:38.836Z,56.31
2018-06-29T03:05:00.580Z,55.84
2018-06-29T03:05:22.321Z,56.60
2018-06-29T03:05:44.136Z,56.16
2018-06-29T03:06:05.894Z,56.21
2018-06-29T03:06:27.648Z,56.23
2018-06-29T03:06:49.401Z,56.40
2018-06-29T03:07:11.159Z,56.34
2018-06-29T03:07:32.905Z,56.46
2018-06-29T03:07:54.659Z,55.70
2018-06-29T03:08:16.413Z,56.28
2018-06-29T03:08:38.162Z,55.92
2018-06-29T03:08:59.902Z,56.02
2018-06-29T03:09:21.660Z,56.48
2018-06-29T03:09:43.442Z,56.19
2018-06-29T03:10:05.205Z,56.13
2018-06-29T03:10:26.949Z,55.80
2018-06-29T03:10:48.691Z,55.56
2018-06-29T03:11:10.463Z,56.43
2018-06-29T03:11:32.233Z,56.29
2018-06-29T03:11:53.990Z,56.06
2018-06-29T03:12:15.730Z,56.42
2018-06-29T03:12:37.485Z,55.97
2018-06-29T03:12:59.231Z,56.71
2018-06-29T03:13:20.973Z,56.45
2018-06-29T03:13:42.744Z,56.50
2018-06-29T03:14:04.521Z,56.57
2018-06-29T03:14:26.286Z,56.24
2018-06-29T03:14:48.038Z,56.77
2018-06-29T03:15:09.774Z,56.13
2018-06-29T03:15:31.511Z,56.61
2018-06-29T03:15:53.302Z,56.36
2018-06-29T03:16:15.065Z,56.46
2018-06-29T03:16:36.832Z,56.60
2018-06-29T03:16:58.592Z,56.65
2018-06-29T03:17:20.406Z,56.56
2018-06-29T03:17:42.151Z,56.60
2018-06-29T03:18:03.912Z,56.44
2018-06-29T03:18:25.747Z,56.76
2018-06-29T03:18:47.529Z,57.09
2018-06-29T03:19:09.289Z,57.02
2018-06-29T03:19:31.078Z,56.61
2018-06-29T03:19:53.151Z,56.71
2018-06-29T03:20:14.906Z,57.12
2018-06-29T03:20:36.655Z,56.75
2018-06-29T03:20:58.424Z,56.57
2018-06-29T03:21:20.166Z,56.75
2018-06-29T03:21:41.925Z,56.92
2018-06-29T03:22:03.674Z,56.45
2018-06-29T03:22:25.429Z,56.29
2018-06-29T03:22:47.170Z,56.38
2018-06-29T03:23:08.915Z,56.13
2018-06-29T03:23:30.672Z,56.35
2018-06-29T03:23:52.427Z,56.64
2018-06-29T03:24:14.180Z,55.84
2018-06-29T03:24:35.942Z,56.72
2018-06-29T03:24:57.681Z,56.42
2018-06-29T03:25:19.549Z,56.30
2018-06-29T03:25:41.185Z,56.38
2018-06-29T03:26:02.999Z,56.02
2018-06-29T03:26:24.744Z,56.03
2018-06-29T03:26:46.519Z,56.36
2018-06-29T03:27:08.292Z,56.10
2018-06-29T03:27:30.055Z,57.09
2018-06-29T03:27:52.058Z,56.45
2018-06-29T03:28:13.817Z,56.95
2018-06-29T03:28:35.571Z,56.46
2018-06-29T03:28:57.324Z,56.48
2018-06-29T03:29:19.074Z,57.22
2018-06-29T03:29:40.855Z,57.30
2018-06-29T03:30:02.956Z,57.18
2018-06-29T03:30:24.725Z,57.06
2018-06-29T03:30:46.494Z,57.48
2018-06-29T03:31:08.269Z,57.41
2018-06-29T03:31:30.023Z,57.22
2018-06-29T03:31:51.770Z,58.10
2018-06-29T03:32:13.540Z,57.53
2018-06-29T03:32:35.304Z,57.94
2018-06-29T03:32:57.069Z,58.33
2018-06-29T03:33:18.829Z,57.84
2018-06-29T03:33:40.599Z,58.12
2018-06-29T03:34:02.343Z,58.49
2018-06-29T03:34:24.099Z,57.38
2018-06-29T03:34:45.846Z,57.44
2018-06-29T03:35:07.595Z,57.65
2018-06-29T03:35:29.442Z,57.01
2018-06-29T03:35:51.209Z,57.26
2018-06-29T03:36:12.972Z,57.88
2018-06-29T03:36:34.732Z,57.45
2018-06-29T03:36:56.475Z,57.72
2018-06-29T03:37:18.221Z,57.28
2018-06-29T03:37:39.980Z,57.57
2018-06-29T03:38:01.735Z,57.63
2018-06-29T03:38:23.504Z,58.24
2018-06-29T03:38:45.267Z,58.26
2018-06-29T03:39:07.025Z,58.02
2018-06-29T03:39:28.778Z,57.73
2018-06-29T03:39:50.525Z,57.52
2018-06-29T03:40:12.295Z,58.14
2018-06-29T03:40:34.221Z,57.89
2018-06-29T03:40:55.810Z,58.31
2018-06-29T03:41:17.617Z,57.93
2018-06-29T03:41:39.356Z,57.38
2018-06-29T03:42:01.094Z,57.68
2018-06-29T03:42:22.852Z,57.64
2018-06-29T03:42:44.610Z,58.41
2018-06-29T03:43:06.376Z,58.41
2018-06-29T03:43:28.128Z,57.99
2018-06-29T03:43:49.891Z,58.22
2018-06-29T03:44:11.645Z,58.09
2018-06-29T03:44:33.401Z,57.66
2018-06-29T03:44:55.142Z,58.08
2018-06-29T03:45:16.908Z,58.37
2018-06-29T03:45:38.654Z,58.28
2018-06-29T03:46:00.411Z,58.48
2018-06-29T03:46:22.177Z,57.90
2018-06-29T03:46:43.948Z,57.92
2018-06-29T03:47:05.693Z,58.33
2018-06-29T03:47:27.442Z,58.24
2018-06-29T03:47:49.186Z,58.41
2018-06-29T03:48:11.000Z,57.89
2018-06-29T03:48:32.716Z,57.96
2018-06-29T03:48:54.476Z,58.61
2018-06-29T03:49:16.236Z,58.26
2018-06-29T03:49:38.072Z,58.37
2018-06-29T03:49:59.763Z,59.14
2018-06-29T03:50:21.517Z,58.52
2018-06-29T03:50:43.267Z,58.95
2018-06-29T03:51:05.012Z,59.00
2018-06-29T03:51:26.780Z,58.65
2018-06-29T03:51:48.532Z,58.24
2018-06-29T03:52:10.295Z,58.44
2018-06-29T03:52:32.038Z,59.18
2018-06-29T03:52:53.783Z,58.55
2018-06-29T03:53:15.535Z,58.61
2018-06-29T03:53:37.289Z,59.21
2018-06-29T03:53:59.058Z,58.89
2018-06-29T03:54:20.816Z,58.73
2018-06-29T03:54:42.583Z,58.96
2018-06-29T03:55:04.356Z,59.05
2018-06-29T03:55:26.115Z,59.34
2018-06-29T03:55:47.868Z,59.31
2018-06-29T03:56:09.668Z,59.14
2018-06-29T03:56:31.402Z,59.13
2018-06-29T03:56:53.214Z,59.54
2018-06-29T03:57:14.964Z,59.47
2018-06-29T03:57:36.719Z,59.65
2018-06-29T03:57:58.490Z,59.66
2018-06-29T03:58:20.242Z,59.23
2018-06-29T03:58:41.996Z,59.07
2018-06-29T03:59:03.767Z,59.66
2018-06-29T03:59:25.562Z,59.16
2018-06-29T03:59:47.310Z,59.99
2018-06-29T04:00:09.076Z,60.01
2018-06-29T04:00:30.837Z,59.50
2018-06-29T04:00:52.600Z,59.66
2018-06-29T04:01:14.368Z,59.55
2018-06-29T04:01:36.135Z,59.19
2018-06-29T04:01:57.894Z,59.60
2018-06-29T04:02:19.646Z,59.48
2018-06-29T04:02:41.419Z,59.70
2018-06-29T04:03:03.171Z,60.16
2018-06-29T04:03:24.944Z,59.95
2018-06-29T04:03:46.706Z,59.71
2018-06-29T04:04:08.572Z,59.58
2018-06-29T04:04:30.323Z,59.90
2018-06-29T04:04:52.060Z,59.96
2018-06-29T04:05:13.995Z,59.79
2018-06-29T04:05:35.781Z,59.92
2018-06-29T04:05:57.539Z,59.85
2018-06-29T04:06:19.311Z,60.10
2018-06-29T04:06:41.079Z,59.55
2018-06-29T04:07:02.835Z,59.87
2018-06-29T04:07:24.588Z,60.10
2018-06-29T04:07:46.334Z,59.74
2018-06-29T04:08:08.083Z,59.54
2018-06-29T04:08:29.831Z,60.24
2018-06-29T04:08:51.599Z,59.56
2018-06-29T04:09:13.368Z,60.10
2018-06-29T04:09:35.132Z,59.58
2018-06-29T04:09:56.899Z,60.53
2018-06-29T04:10:18.641Z,59.93
2018-06-29T04:10:40.405Z,59.51
2018-06-29T04:11:02.147Z,60.09
2018-06-29T04:11:23.914Z,59.62
2018-06-29T04:11:45.671Z,60.18
2018-06-29T04:12:07.426Z,60.57
2018-06-29T04:12:29.180Z,60.55
2018-06-29T04:12:50.949Z,60.57
2018-06-29T04:13:12.712Z,59.96
2018-06-29T04:13:34.467Z,60.42
2018-06-29T04:13:56.220Z,60.46
2018-06-29T04:14:17.971Z,60.08
2018-06-29T04:14:39.728Z,59.96
2018-06-29T04:15:01.483Z,60.45
2018-06-29T04:15:23.252Z,60.83
2018-06-29T04:15:45.048Z,60.31
2018-06-29T04:16:06.785Z,60.17
2018-06-29T04:16:28.564Z,60.70
2018-06-29T04:16:50.320Z,60.13
2018-06-29T04:17:12.082Z,60.65
2018-06-29T04:17:33.840Z,61.07
2018-06-29T04:17:55.603Z,60.19
2018-06-29T04:18:17.352Z,60.65
2018-06-29T04:18:39.107Z,60.65
2018-06-29T04:19:00.867Z,60.88
2018-06-29T04:19:22.610Z,60.42
2018-06-29T04:19:44.346Z,61.08
2018-06-29T04:20:06.117Z,60.27
2018-06-29T04:20:27.871Z,61.01
2018-06-29T04:20:49.622Z,60.74
2018-06-29T04:21:11.384Z,60.82
2018-06-29T04:21:33.511Z,60.59
2018-06-29T04:21:55.278Z,60.73
2018-06-29T04:22:17.032Z,60.26
2018-06-29T04:22:38.774Z,60.80
2018-06-29T04:23:00.533Z,60.66
2018-06-29T04:23:22.343Z,60.50
2018-06-29T04:23:44.102Z,60.96
2018-06-29T04:24:05.869Z,60.56
2018-06-29T04:24:27.629Z,60.78
2018-06-29T04:24:49.384Z,61.12
2018-06-29T04:25:11.144Z,61.47
2018-06-29T04:25:32.884Z,61.29
2018-06-29T04:25:54.651Z,60.54
2018-06-29T04:26:16.408Z,60.56
2018-06-29T04:26:38.189Z,60.47
2018-06-29T04:26:59.952Z,60.52
2018-06-29T04:27:21.712Z,60.87
2018-06-29T04:27:43.467Z,61.00
2018-06-29T04:28:05.215Z,61.36
2018-06-29T04:28:26.968Z,60.99
2018-06-29T04:28:48.719Z,61.27
2018-06-29T04:29:10.483Z,61.18
2018-06-29T04:29:32.227Z,60.42
2018-06-29T04:29:53.985Z,60.40
2018-06-29T04:30:15.739Z,60.60
2018-06-29T04:30:37.809Z,60.97
2018-06-29T04:30:59.568Z,60.95
2018-06-29T04:31:21.326Z,60.66
2018-06-29T04:31:43.098Z,60.85
2018-06-29T04:32:04.842Z,60.37
2018-06-29T04:32:26.600Z,60.83
2018-06-29T04:32:48.407Z,60.09
2018-06-29T04:33:10.124Z,59.99
2018-06-29T04:33:31.888Z,60.45
2018-06-29T04:33:53.656Z,60.38
2018-06-29T04:34:15.427Z,60.08
2018-06-29T04:34:37.174Z,60.86
2018-06-29T04:34:58.919Z,60.61
2018-06-29T04:35:20.696Z,60.62
2018-06-29T04:35:42.477Z,60.63
2018-06-29T04:36:04.233Z,61.00
2018-06-29T04:36:26.348Z,61.25
2018-06-29T04:36:48.126Z,61.40
2018-06-29T04:37:09.888Z,60.71
2018-06-29T04:37:31.656Z,61.29
2018-06-29T04:37:53.414Z,60.80
2018-06-29T04:38:15.206Z,60.54
2018-06-29T04:38:36.984Z,60.84
2018-06-29T04:38:58.727Z,61.30
2018-06-29T04:39:20.506Z,60.79
2018-06-29T04:39:42.273Z,61.25
2018-06-29T04:40:04.028Z,60.34
2018-06-29T04:40:25.778Z,60.61
2018-06-29T04:40:47.534Z,60.43
2018-06-29T04:41:09.611Z,60.33
2018-06-29T04:41:31.400Z,61.04
2018-06-29T04:41:53.156Z,60.42
2018-06-29T04:42:14.896Z,60.28
2018-06-29T04:42:36.662Z,60.52
2018-06-29T04:42:58.460Z,60.30
2018-06-29T04:43:20.214Z,60.61
2018-06-29T04:43:41.962Z,60.37
2018-06-29T04:44:03.748Z,60.25
2018-06-29T04:44:25.521Z,60.92
2018-06-29T04:44:47.274Z,60.64
2018-06-29T04:45:09.067Z,60.55
2018-06-29T04:45:30.828Z,60.01
2018-06-29T04:45:52.600Z,60.45
2018-06-29T04:46:14.356Z,59.54
2018-06-29T04:46:36.133Z,60.38
2018-06-29T04:46:57.879Z,59.33
2018-06-29T04:47:19.627Z,59.12
2018-06-29T04:47:41.389Z,59.07
2018-06-29T04:48:03.146Z,58.59
2018-06-29T04:48:24.904Z,58.55
2018-06-29T04:48:46.655Z,57.98
2018-06-29T04:49:08.429Z,58.08
2018-06-29T04:49:30.191Z,58.44
2018-06-29T04:49:51.938Z,59.02
2018-06-29T04:50:13.689Z,58.61
2018-06-29T04:50:35.429Z,58.87
2018-06-29T04:50:57.167Z,59.22
2018-06-29T04:51:18.943Z,59.09
2018-06-29T04:51:40.706Z,59.30
2018-06-29T04:52:02.460Z,58.70
2018-06-29T04:52:24.224Z,59.12
2018-06-29T04:52:45.987Z,59.04
2018-06-29T04:53:07.736Z,58.89
2018-06-29T04:53:29.491Z,59.22
2018-06-29T04:53:51.250Z,58.37
2018-06-29T04:54:13.011Z,58.45
2018-06-29T04:54:34.762Z,57.86
2018-06-29T04:54:56.524Z,57.99
2018-06-29T04:55:18.304Z,58.94
2018-06-29T04:55:40.057Z,58.72
2018-06-29T04:56:01.811Z,58.51
2018-06-29T04:56:23.563Z,58.90
2018-06-29T04:56:45.320Z,59.13
2018-06-29T04:57:07.104Z,59.38
2018-06-29T04:57:28.853Z,59.20
2018-06-29T04:57:50.606Z,59.11
2018-06-29T04:58:12.349Z,58.78
2018-06-29T04:58:34.092Z,58.76
2018-06-29T04:58:55.843Z,58.65
2018-06-29T04:59:17.609Z,59.62
2018-06-29T04:59:39.375Z,58.81
2018-06-29T05:00:01.123Z,59.62
2018-06-29T05:00:22.900Z,59.66
2018-06-29T05:00:44.667Z,60.00
2018-06-29T05:01:06.440Z,59.73
2018-06-29T05:01:28.194Z,59.50
2018-06-29T05:01:49.955Z,59.63
2018-06-29T05:02:11.716Z,59.44
2018-06-29T05:02:33.471Z,60.22
2018-06-29T05:02:55.264Z,59.76
2018-06-29T05:03:17.015Z,60.00
2018-06-29T05:03:38.790Z,60.02
2018-06-29T05:04:00.530Z,59.53
2018-06-29T05:04:22.287Z,60.25
2018-06-29T05:04:44.040Z,59.47
2018-06-29T05:05:05.814Z,59.36
2018-06-29T05:05:27.566Z,59.34
2018-06-29T05:05:49.396Z,59.43
2018-06-29T05:06:12.062Z,60.26
2018-06-29T05:06:33.823Z,60.27
2018-06-29T05:06:55.607Z,59.54
2018-06-29T05:07:17.348Z,59.97
2018-06-29T05:07:39.109Z,60.13
2018-06-29T05:08:00.853Z,60.13
2018-06-29T05:08:22.609Z,59.84
2018-06-29T05:08:44.367Z,59.62
2018-06-29T05:09:06.129Z,60.14
2018-06-29T05:09:27.883Z,60.20
2018-06-29T05:09:49.629Z,60.17
2018-06-29T05:10:11.397Z,59.60
2018-06-29T05:10:33.154Z,59.55
2018-06-29T05:10:54.902Z,59.45
2018-06-29T05:11:16.664Z,59.71
2018-06-29T05:11:38.975Z,59.87
2018-06-29T05:12:00.740Z,59.79
2018-06-29T05:12:22.506Z,59.94
2018-06-29T05:12:44.276Z,59.67
2018-06-29T05:13:06.022Z,59.99
2018-06-29T05:13:27.769Z,59.81
2018-06-29T05:13:49.522Z,59.91
2018-06-29T05:14:11.276Z,59.58
2018-06-29T05:14:33.035Z,59.62
2018-06-29T05:14:54.783Z,60.02
2018-06-29T05:15:16.544Z,60.28
2018-06-29T05:15:38.383Z,60.30
2018-06-29T05:16:00.221Z,59.99
2018-06-29T05:16:21.959Z,60.01
2018-06-29T05:16:43.748Z,59.34
2018-06-29T05:17:05.526Z,59.45
2018-06-29T05:17:27.301Z,59.79
2018-06-29T05:17:49.075Z,59.40
2018-06-29T05:18:10.844Z,59.36
2018-06-29T05:18:32.600Z,59.62
2018-06-29T05:18:54.357Z,59.97
2018-06-29T05:19:16.115Z,60.15
2018-06-29T05:19:37.902Z,59.99
2018-06-29T05:19:59.659Z,59.96
2018-06-29T05:20:21.416Z,60.08
2018-06-29T05:20:43.169Z,59.67
2018-06-29T05:21:41.096Z,60.39
2018-06-29T05:22:02.877Z,59.55
2018-06-29T05:22:24.635Z,59.96
2018-06-29T05:22:46.398Z,60.44
2018-06-29T05:23:08.150Z,59.67
2018-06-29T05:23:29.918Z,59.86
2018-06-29T05:23:51.669Z,59.97
2018-06-29T05:24:13.407Z,59.60
2018-06-29T05:24:35.154Z,59.58
2018-06-29T05:24:56.915Z,59.84
2018-06-29T05:25:18.671Z,60.01
2018-06-29T05:25:40.422Z,59.99
2018-06-29T05:26:02.179Z,60.17
2018-06-29T05:26:23.924Z,59.21
2018-06-29T05:26:45.677Z,59.35
2018-06-29T05:27:07.447Z,59.27
2018-06-29T05:27:29.199Z,59.38
2018-06-29T05:27:50.949Z,59.86
2018-06-29T05:28:12.713Z,59.88
2018-06-29T05:28:34.457Z,60.06
2018-06-29T05:28:56.226Z,60.04
2018-06-29T05:29:17.990Z,59.59
2018-06-29T05:29:39.743Z,60.38
2018-06-29T05:30:01.494Z,59.46
2018-06-29T05:30:23.249Z,59.88
2018-06-29T05:30:45.024Z,59.46
2018-06-29T05:31:06.784Z,59.56
2018-06-29T05:31:28.540Z,59.42
2018-06-29T05:31:50.392Z,59.71
2018-06-29T05:32:12.157Z,59.23
2018-06-29T05:32:33.906Z,59.79
2018-06-29T05:32:55.650Z,60.06
2018-06-29T05:33:17.627Z,59.91
2018-06-29T05:33:39.419Z,59.92
2018-06-29T05:34:01.178Z,59.85
2018-06-29T05:34:22.943Z,59.79
2018-06-29T05:34:44.692Z,59.58
2018-06-29T05:35:06.435Z,59.28
2018-06-29T05:35:28.192Z,60.07
2018-06-29T05:35:49.950Z,60.19
2018-06-29T05:36:11.711Z,59.64
2018-06-29T05:36:33.457Z,59.90
2018-06-29T05:36:55.293Z,60.19
2018-06-29T05:37:17.051Z,59.74
2018-06-29T05:37:38.804Z,59.29
2018-06-29T05:38:00.565Z,59.52
2018-06-29T05:38:22.320Z,59.84
2018-06-29T05:38:44.080Z,59.64
2018-06-29T05:39:05.850Z,59.24
2018-06-29T05:39:27.633Z,59.99
2018-06-29T05:39:49.380Z,59.81
2018-06-29T05:40:11.140Z,59.76
2018-06-29T05:40:32.889Z,59.85
2018-06-29T05:40:54.641Z,59.59
2018-06-29T05:41:16.447Z,59.78
2018-06-29T05:41:38.415Z,60.01
2018-06-29T05:42:00.164Z,59.75
2018-06-29T05:42:21.923Z,59.63
2018-06-29T05:42:43.683Z,59.47
2018-06-29T05:43:05.469Z,59.48
2018-06-29T05:43:27.233Z,59.82
2018-06-29T05:43:49.100Z,59.77
2018-06-29T05:44:10.892Z,59.89
2018-06-29T05:44:32.627Z,59.69
2018-06-29T05:44:54.375Z,59.35
2018-06-29T05:45:16.135Z,59.90
2018-06-29T05:45:37.886Z,59.70
2018-06-29T05:45:59.639Z,60.08
2018-06-29T05:46:21.434Z,59.17
2018-06-29T05:46:43.196Z,59.83
2018-06-29T05:47:05.044Z,60.03
2018-06-29T05:47:26.759Z,59.31
2018-06-29T05:47:48.525Z,59.21
2018-06-29T05:48:10.283Z,59.51
2018-06-29T05:48:32.048Z,59.52
2018-06-29T05:48:53.802Z,59.72
2018-06-29T05:49:15.601Z,59.60
2018-06-29T05:49:37.349Z,59.12
2018-06-29T05:49:59.120Z,59.49
2018-06-29T05:50:20.871Z,59.77
2018-06-29T05:50:42.618Z,59.36
2018-06-29T05:51:04.364Z,59.85
2018-06-29T05:51:26.118Z,59.72
2018-06-29T05:51:47.872Z,59.46
2018-06-29T05:52:09.669Z,59.92
2018-06-29T05:52:31.428Z,59.40
2018-06-29T05:52:53.192Z,59.44
2018-06-29T05:53:14.938Z,59.17
2018-06-29T05:53:36.726Z,59.49
2018-06-29T05:53:58.487Z,59.70
2018-06-29T05:54:20.241Z,59.77
2018-06-29T05:54:41.978Z,59.92
2018-06-29T05:55:03.720Z,59.44
2018-06-29T05:55:25.478Z,59.41
2018-06-29T05:55:47.214Z,59.83
2018-06-29T05:56:08.967Z,59.42
2018-06-29T05:56:30.744Z,59.03
2018-06-29T05:56:52.518Z,59.06
2018-06-29T05:57:14.312Z,59.59
2018-06-29T05:57:36.104Z,59.69
2018-06-29T05:57:57.870Z,59.57
2018-06-29T05:58:19.612Z,59.50
2018-06-29T05:58:41.374Z,59.08
2018-06-29T05:59:03.151Z,59.72
2018-06-29T05:59:24.895Z,59.86
2018-06-29T05:59:46.653Z,59.31
2018-06-29T06:00:08.424Z,59.26
2018-06-29T06:00:30.178Z,59.30
2018-06-29T06:00:51.949Z,59.63